Wildrose, North Dakota
Current Conditions -  °F | °C
As of 7:15 AM on Thursday 30 Oct 2014 (Local Time) from KD60 Reporting Station
Overcast Overcast  
Wind Chill: 25°   Ceiling: 1200
Heat Index: 32°   Visibility: 9mi
Dew Point: 32°   Wind: 8mph
Humidity: 100%   Direction: 60°ENE
Pressure: 30.28"   Gusts: NA
Location:  48.63°N, 103.18°W
Report Text: KD60 301215Z AUTO 06007KT 9SM OVC012 00/00 A3028 RMK AO2
Loading
Personal Weather Stations






























Interactive Weather Map New forecast layout! Learn more

10-Day Weather Forecast

Advertisements
Track Severe Weather on mobile